AirNav   Everest Fuels
 
 1117 users online  

3F7 Jones Memorial Airport
Bristow, Oklahoma, USA

GOING TO BRISTOW?


FAA INFORMATION EFFECTIVE 09 SEPTEMBER 2021

Location

FAA Identifier: 3F7
Lat/Long: 35-48-25.3660N 096-25-16.0890W
35-48.422767N 096-25.268150W
35.8070461,-96.4211358
(estimated)
Elevation: 869.6 ft. / 265.1 m (surveyed)
Variation: 05E (2000)
From city: 3 miles SW of BRISTOW, OK
Time zone: UTC -5 (UTC -6 during Standard Time)
Zip code: 74010

Airport Operations

Airport use: Open to the public
Activation date: 01/1966
Control tower: no
ARTCC: KANSAS CITY CENTER
FSS: MC ALESTER FLIGHT SERVICE STATION
NOTAMs facility: MLC (NOTAM-D service available)
Attendance: UNATNDD
Wind indicator: yes
Segmented circle: no
Lights: MIRL RWY 18/36 ON DUSK - DAWN. INCR INTST - CTAF.
Beacon: white-green (lighted land airport)
Operates sunset to sunrise.

Airport Communications

CTAF: 122.9
WX AWOS-3 at CUH (19 nm NW): 118.25 ((918) 225-6072)
  • APCH/DEP CTL SVC PRVDD BY KANSAS CITY ARTCC (ZKC) ON FREQS 127.8/319.1(PONCA CITY RCAG).

Nearby radio navigation aids

VOR radial/distance  VOR name  Freq  Var
OKMr276/27.9OKMULGEE VOR/DME114.9008E
TULr225/38.6TULSA VORTAC114.4008E

 
NDB name  Hdg/Dist  Freq  Var  ID
HENRYETTA317/31.326704EHET .... . -
SEMINOLE015/34.427806ESRE ... .-. .

Airport Services

Fuel available: 100LL
100LL:24 HR. AUTOMATED FUEL SERVICE SYSTEM.
Parking: tiedowns
Bottled oxygen: NONE
Bulk oxygen: NONE

Runway Information

Runway 18/36

Dimensions: 4001 x 75 ft. / 1220 x 23 m
Surface: asphalt, in excellent condition
Weight bearing capacity: 
Single wheel: 4.0
Runway edge lights: medium intensity
RUNWAY 18  RUNWAY 36
Latitude: 35-48.752437N35-48.093103N
Longitude: 096-25.266992W096-25.269323W
Elevation: 806.0 ft.869.6 ft.
Traffic pattern: leftleft
Runway heading: 176 magnetic, 181 true356 magnetic, 001 true
Markings: precision, in good conditionprecision, in good condition
Touchdown point: yes, no lightsyes, no lights
Obstructions: none40 ft. tree, marked, 837 ft. from runway, 196 ft. right of centerline, 15:1 slope to clear

Airport Ownership and Management from official FAA records

Ownership: Publicly-owned
Owner: CITY OF BRISTOW
110 W 7TH ST
BRISTOW, OK 74010
Phone 918-367-6244
Manager: ANDREW DONOHUE
24503 S 385TH WEST AVE
BRISTOW, OK 74010
Phone (918) 340-0000

Airport Operational Statistics

Aircraft based on the field: 9
Single engine airplanes: 8
Helicopters: 1
    
Aircraft operations: avg 38/week *
75% transient general aviation
25% local general aviation
* for 12-month period ending 16 June 2020

Additional Remarks

FOR CD CTC KANSAS CITY ARTCC AT 913-254-8508.

Instrument Procedures

NOTE: All procedures below are presented as PDF files. If you need a reader for these files, you should download the free Adobe Reader.

NOT FOR NAVIGATION. Please procure official charts for flight.
FAA instrument procedures published for use from 09 September 2021 at 0901Z to 07 October 2021 at 0900Z.

 
IAPs - Instrument Approach Procedures
RNAV (GPS) RWY 18   download (197KB)
RNAV (GPS) RWY 36   download (200KB)
NOTE: Special Take-Off Minimums/Departure Procedures apply   download (345KB)

Other nearby airports with instrument procedures:

KCUH - Cushing Municipal Airport (19 nm NW)
KCQB - Chandler Regional Airport (20 nm W)
O47 - Prague Municipal Airport (24 nm SW)
KOKM - Okmulgee Regional Airport (24 nm E)
KRVS - Richard Lloyd Jones Jr Airport (25 nm NE)
 
Loc | Ops | Rwys | IFR | FBO | Links
Com | Nav | Svcs | Stats | Notes
Area around 3F7 (Jones Memorial Airport)
 
Road maps at: MapQuest Bing Google
 
Aerial photo
WARNING: Photo may not be current or correct
Aerial photo of 3F7 (Jones Memorial Airport)
Photo taken 23-Jul-2007

Do you have a better or more recent aerial photo of Jones Memorial Airport that you would like to share? If so, please send us your photo.

 
Sectional chart

 
Airport distance calculator
Flying to Jones Memorial Airport? Find the distance to fly.

From to 3F7

Sunrise and sunset
Times for 24-Sep-2021
 Local
(UTC-5)
 Zulu
(UTC)
Morning civil twilight06:5111:51
Sunrise07:1612:16
Sunset19:1900:19
Evening civil twilight19:4500:45

Current date and time
Zulu (UTC)  24-Sep-2021 22:52:25
Local (UTC-5)  24-Sep-2021 17:52:25
 
METAR
KCUH 
19nm NW 
242235Z AUTO 21006KT 10SM CLR 29/08 A2998 RMK AO2 T02910077
KCQB 
20nm W 
242235Z AUTO 19007KT 10SM CLR 29/08 A3000 RMK AO2 T02850075
KOKM 
24nm E 
242235Z AUTO 19009KT 10SM CLR 28/06 A3000 RMK AO2 T02810058
KOWP 
26nm NE 
242230Z AUTO 00000KT 10SM CLR 30/05 A2999 RMK AO2 T03010051 PWINO
KRVS 
26nm NE 
242153Z 19008KT 10SM CLR 29/05 A2998 RMK AO2 SLP157 T02940050
KSRE 
34nm S 
242235Z AUTO 19007KT 10SM CLR 29/03 A3000 RMK AO2
KTUL 
35nm NE 
242153Z 19009KT 10SM FEW140 BKN250 29/05 A2998 RMK AO2 SLP145 T02940050
KSNL 
38nm SW 
242235Z AUTO 20007KT 10SM CLR 29/00 A3000 RMK AO2 T02860001
TAF
KRVS 
26nm NE 
241730Z 2418/2518 20010G20KT P6SM BKN250 FM250000 18005KT P6SM SCT250 FM250600 VRB03KT P6SM SCT250
NOTAMs
Click for the latest NOTAMs
NOTAMs are issued by the DoD/FAA and will open in a separate window not controlled by AirNav.

 

 
 

FBO, Fuel Providers, and Aircraft Ground Support

  
 Business Name 
 
 Contact 
 
 Services / Description 
 
Fuel Prices
 
Comments
  
City of Bristow (FBO) 918-340-0000
no information available

If you are affiliated with City of Bristow (FBO) and would like to show here your services, contact info, web link, logo, and more, click here
100LL
PS $3.89 
 Updated 14-Sep-2021
 
   2 read write
PS=Pump service
Update Fuel Prices
 

Would you like to see your business listed on this page?

 If your business provides an interesting product or service to pilots, flight crews, aircraft, or users of the Jones Memorial Airport, you should consider listing it here.  To start the listing process, click on the button below
 
Add a business
 

Other Pages about Jones Memorial Airport

Update a link
 
Copyright © AirNav, LLC. All rights reserved. Privacy Policy  Contact